sensor_id;sensor_type;location;lat;lon;timestamp;P1;durP1;ratioP1;P2;durP2;ratioP2
42832;SDS011;64089;51.478;5.692;2023-04-24T00:00:56;14.25;;;6.85;;
42832;SDS011;64089;51.478;5.692;2023-04-24T00:03:23;10.38;;;6.70;;
42832;SDS011;64089;51.478;5.692;2023-04-24T00:05:49;14.65;;;7.03;;
42832;SDS011;64089;51.478;5.692;2023-04-24T00:08:16;11.25;;;6.70;;
42832;SDS011;64089;51.478;5.692;2023-04-24T00:10:42;13.85;;;7.28;;
42832;SDS011;64089;51.478;5.692;2023-04-24T00:13:08;12.88;;;7.80;;
42832;SDS011;64089;51.478;5.692;2023-04-24T00:15:33;13.35;;;7.00;;
42832;SDS011;64089;51.478;5.692;2023-04-24T00:17:59;15.43;;;7.22;;
42832;SDS011;64089;51.478;5.692;2023-04-24T00:20:26;16.98;;;7.82;;
42832;SDS011;64089;51.478;5.692;2023-04-24T00:22:54;14.52;;;7.13;;
42832;SDS011;64089;51.478;5.692;2023-04-24T00:25:20;14.65;;;7.53;;
42832;SDS011;64089;51.478;5.692;2023-04-24T00:27:45;17.15;;;7.18;;
42832;SDS011;64089;51.478;5.692;2023-04-24T00:30:11;17.13;;;7.43;;
42832;SDS011;64089;51.478;5.692;2023-04-24T00:32:36;15.43;;;7.47;;
42832;SDS011;64089;51.478;5.692;2023-04-24T00:35:02;20.67;;;7.85;;
42832;SDS011;64089;51.478;5.692;2023-04-24T00:37:28;11.13;;;6.43;;
42832;SDS011;64089;51.478;5.692;2023-04-24T00:39:54;14.63;;;6.55;;
42832;SDS011;64089;51.478;5.692;2023-04-24T00:42:20;13.15;;;6.65;;
42832;SDS011;64089;51.478;5.692;2023-04-24T00:44:45;19.63;;;7.70;;
42832;SDS011;64089;51.478;5.692;2023-04-24T00:47:12;17.80;;;7.60;;
42832;SDS011;64089;51.478;5.692;2023-04-24T00:49:38;21.55;;;7.20;;
42832;SDS011;64089;51.478;5.692;2023-04-24T00:52:03;13.77;;;6.85;;
42832;SDS011;64089;51.478;5.692;2023-04-24T00:54:32;14.57;;;7.53;;
42832;SDS011;64089;51.478;5.692;2023-04-24T00:56:58;13.88;;;7.43;;
42832;SDS011;64089;51.478;5.692;2023-04-24T00:59:24;14.65;;;7.60;;
42832;SDS011;64089;51.478;5.692;2023-04-24T01:01:49;14.43;;;7.72;;
42832;SDS011;64089;51.478;5.692;2023-04-24T01:04:16;13.18;;;7.88;;
42832;SDS011;64089;51.478;5.692;2023-04-24T01:06:43;16.27;;;8.50;;
42832;SDS011;64089;51.478;5.692;2023-04-24T01:09:10;14.93;;;7.45;;
42832;SDS011;64089;51.478;5.692;2023-04-24T01:11:37;16.05;;;8.50;;
42832;SDS011;64089;51.478;5.692;2023-04-24T01:14:03;30.55;;;9.57;;
42832;SDS011;64089;51.478;5.692;2023-04-24T01:16:29;18.02;;;9.40;;
42832;SDS011;64089;51.478;5.692;2023-04-24T01:18:54;16.65;;;9.48;;
42832;SDS011;64089;51.478;5.692;2023-04-24T01:21:20;22.23;;;9.15;;
42832;SDS011;64089;51.478;5.692;2023-04-24T01:23:46;21.25;;;8.75;;
42832;SDS011;64089;51.478;5.692;2023-04-24T01:26:13;20.15;;;8.68;;
42832;SDS011;64089;51.478;5.692;2023-04-24T01:28:41;15.88;;;9.85;;
42832;SDS011;64089;51.478;5.692;2023-04-24T01:31:07;15.10;;;9.13;;
42832;SDS011;64089;51.478;5.692;2023-04-24T01:33:33;20.50;;;9.70;;
42832;SDS011;64089;51.478;5.692;2023-04-24T01:35:58;21.25;;;9.63;;
42832;SDS011;64089;51.478;5.692;2023-04-24T01:38:25;19.25;;;9.38;;
42832;SDS011;64089;51.478;5.692;2023-04-24T01:40:50;19.10;;;9.00;;
42832;SDS011;64089;51.478;5.692;2023-04-24T01:43:16;16.30;;;9.15;;
42832;SDS011;64089;51.478;5.692;2023-04-24T01:45:42;18.67;;;9.63;;
42832;SDS011;64089;51.478;5.692;2023-04-24T01:48:08;19.27;;;10.45;;
42832;SDS011;64089;51.478;5.692;2023-04-24T01:50:34;21.75;;;10.95;;
42832;SDS011;64089;51.478;5.692;2023-04-24T01:52:59;21.75;;;10.75;;
42832;SDS011;64089;51.478;5.692;2023-04-24T01:55:25;21.65;;;9.85;;
42832;SDS011;64089;51.478;5.692;2023-04-24T01:57:52;21.92;;;10.30;;
42832;SDS011;64089;51.478;5.692;2023-04-24T02:00:20;20.98;;;10.30;;
42832;SDS011;64089;51.478;5.692;2023-04-24T02:02:45;20.70;;;10.98;;
42832;SDS011;64089;51.478;5.692;2023-04-24T02:05:11;23.08;;;10.63;;
42832;SDS011;64089;51.478;5.692;2023-04-24T02:07:37;22.30;;;10.30;;
42832;SDS011;64089;51.478;5.692;2023-04-24T02:10:03;24.20;;;11.55;;
42832;SDS011;64089;51.478;5.692;2023-04-24T02:12:29;21.88;;;10.45;;
42832;SDS011;64089;51.478;5.692;2023-04-24T02:14:55;18.63;;;11.48;;
42832;SDS011;64089;51.478;5.692;2023-04-24T02:17:21;23.48;;;11.73;;
42832;SDS011;64089;51.478;5.692;2023-04-24T02:19:47;21.77;;;11.43;;
42832;SDS011;64089;51.478;5.692;2023-04-24T02:22:13;28.63;;;10.85;;
42832;SDS011;64089;51.478;5.692;2023-04-24T02:24:39;22.92;;;11.88;;
42832;SDS011;64089;51.478;5.692;2023-04-24T02:27:04;31.02;;;12.60;;
42832;SDS011;64089;51.478;5.692;2023-04-24T02:29:30;29.52;;;11.52;;
42832;SDS011;64089;51.478;5.692;2023-04-24T02:31:56;22.17;;;11.25;;
42832;SDS011;64089;51.478;5.692;2023-04-24T02:34:21;29.23;;;11.77;;
42832;SDS011;64089;51.478;5.692;2023-04-24T02:36:48;22.92;;;12.10;;
42832;SDS011;64089;51.478;5.692;2023-04-24T02:39:13;19.38;;;11.43;;
42832;SDS011;64089;51.478;5.692;2023-04-24T02:41:41;24.88;;;11.73;;
42832;SDS011;64089;51.478;5.692;2023-04-24T02:44:07;19.98;;;10.57;;
42832;SDS011;64089;51.478;5.692;2023-04-24T02:46:33;23.52;;;10.73;;
42832;SDS011;64089;51.478;5.692;2023-04-24T02:48:58;30.33;;;10.93;;
42832;SDS011;64089;51.478;5.692;2023-04-24T02:51:24;24.52;;;10.65;;
42832;SDS011;64089;51.478;5.692;2023-04-24T02:53:50;23.30;;;11.13;;
42832;SDS011;64089;51.478;5.692;2023-04-24T02:56:16;20.73;;;10.25;;
42832;SDS011;64089;51.478;5.692;2023-04-24T02:58:41;28.58;;;11.57;;
42832;SDS011;64089;51.478;5.692;2023-04-24T03:01:07;21.52;;;11.27;;
42832;SDS011;64089;51.478;5.692;2023-04-24T03:03:35;33.53;;;11.40;;
42832;SDS011;64089;51.478;5.692;2023-04-24T03:06:01;27.88;;;10.52;;
42832;SDS011;64089;51.478;5.692;2023-04-24T03:08:26;22.02;;;9.75;;
42832;SDS011;64089;51.478;5.692;2023-04-24T03:10:52;24.67;;;10.75;;
42832;SDS011;64089;51.478;5.692;2023-04-24T03:13:18;25.02;;;10.00;;
42832;SDS011;64089;51.478;5.692;2023-04-24T03:15:43;24.88;;;10.07;;
42832;SDS011;64089;51.478;5.692;2023-04-24T03:18:11;18.83;;;9.80;;
42832;SDS011;64089;51.478;5.692;2023-04-24T03:20:37;23.17;;;10.23;;
42832;SDS011;64089;51.478;5.692;2023-04-24T03:23:02;19.48;;;9.88;;
42832;SDS011;64089;51.478;5.692;2023-04-24T03:25:28;37.70;;;9.27;;
42832;SDS011;64089;51.478;5.692;2023-04-24T03:27:54;16.83;;;8.95;;
42832;SDS011;64089;51.478;5.692;2023-04-24T03:30:22;19.45;;;9.43;;
42832;SDS011;64089;51.478;5.692;2023-04-24T03:32:48;17.92;;;8.82;;
42832;SDS011;64089;51.478;5.692;2023-04-24T03:35:13;15.18;;;8.93;;
42832;SDS011;64089;51.478;5.692;2023-04-24T03:37:39;13.20;;;8.38;;
42832;SDS011;64089;51.478;5.692;2023-04-24T03:40:08;16.27;;;7.80;;
42832;SDS011;64089;51.478;5.692;2023-04-24T03:42:34;13.73;;;6.82;;
42832;SDS011;64089;51.478;5.692;2023-04-24T03:44:59;13.20;;;5.63;;
42832;SDS011;64089;51.478;5.692;2023-04-24T03:47:25;12.10;;;5.50;;
42832;SDS011;64089;51.478;5.692;2023-04-24T03:49:50;14.02;;;7.43;;
42832;SDS011;64089;51.478;5.692;2023-04-24T03:52:16;12.50;;;6.10;;
42832;SDS011;64089;51.478;5.692;2023-04-24T03:54:42;10.35;;;5.38;;
42832;SDS011;64089;51.478;5.692;2023-04-24T03:57:07;9.35;;;5.43;;
42832;SDS011;64089;51.478;5.692;2023-04-24T03:59:33;8.00;;;4.10;;
42832;SDS011;64089;51.478;5.692;2023-04-24T04:01:58;6.65;;;4.20;;
42832;SDS011;64089;51.478;5.692;2023-04-24T04:04:24;5.35;;;3.72;;
42832;SDS011;64089;51.478;5.692;2023-04-24T04:06:50;5.47;;;3.10;;
42832;SDS011;64089;51.478;5.692;2023-04-24T04:09:16;10.07;;;4.75;;
42832;SDS011;64089;51.478;5.692;2023-04-24T04:11:41;9.65;;;4.28;;
42832;SDS011;64089;51.478;5.692;2023-04-24T04:14:07;4.65;;;3.22;;
42832;SDS011;64089;51.478;5.692;2023-04-24T04:16:32;10.95;;;3.67;;
42832;SDS011;64089;51.478;5.692;2023-04-24T04:18:58;5.85;;;3.15;;
42832;SDS011;64089;51.478;5.692;2023-04-24T04:21:24;5.28;;;3.38;;
42832;SDS011;64089;51.478;5.692;2023-04-24T04:23:49;3.47;;;2.85;;
42832;SDS011;64089;51.478;5.692;2023-04-24T04:26:18;4.85;;;2.60;;
42832;SDS011;64089;51.478;5.692;2023-04-24T04:28:46;8.35;;;3.53;;
42832;SDS011;64089;51.478;5.692;2023-04-24T04:31:12;6.32;;;3.42;;
42832;SDS011;64089;51.478;5.692;2023-04-24T04:33:38;4.95;;;2.88;;
42832;SDS011;64089;51.478;5.692;2023-04-24T04:36:04;5.82;;;3.25;;
42832;SDS011;64089;51.478;5.692;2023-04-24T04:38:30;4.03;;;2.88;;
42832;SDS011;64089;51.478;5.692;2023-04-24T04:40:56;5.75;;;3.10;;
42832;SDS011;64089;51.478;5.692;2023-04-24T04:43:22;4.95;;;2.92;;
42832;SDS011;64089;51.478;5.692;2023-04-24T04:45:49;6.15;;;3.38;;
42832;SDS011;64089;51.478;5.692;2023-04-24T04:48:16;4.28;;;2.50;;
42832;SDS011;64089;51.478;5.692;2023-04-24T04:50:43;3.60;;;2.33;;
42832;SDS011;64089;51.478;5.692;2023-04-24T04:53:09;6.32;;;3.30;;
42832;SDS011;64089;51.478;5.692;2023-04-24T04:55:35;3.85;;;2.55;;
42832;SDS011;64089;51.478;5.692;2023-04-24T04:58:01;3.78;;;2.15;;
42832;SDS011;64089;51.478;5.692;2023-04-24T05:00:27;4.43;;;2.17;;
42832;SDS011;64089;51.478;5.692;2023-04-24T05:02:54;5.03;;;2.70;;
42832;SDS011;64089;51.478;5.692;2023-04-24T05:05:19;4.60;;;2.65;;
42832;SDS011;64089;51.478;5.692;2023-04-24T05:07:45;3.58;;;2.00;;
42832;SDS011;64089;51.478;5.692;2023-04-24T05:10:10;3.40;;;2.47;;
42832;SDS011;64089;51.478;5.692;2023-04-24T05:12:36;4.25;;;2.65;;
42832;SDS011;64089;51.478;5.692;2023-04-24T05:15:02;4.53;;;2.95;;
42832;SDS011;64089;51.478;5.692;2023-04-24T05:17:28;5.65;;;2.30;;
42832;SDS011;64089;51.478;5.692;2023-04-24T05:19:54;2.70;;;2.10;;
42832;SDS011;64089;51.478;5.692;2023-04-24T05:22:20;6.63;;;2.80;;
42832;SDS011;64089;51.478;5.692;2023-04-24T05:24:46;3.67;;;2.13;;
42832;SDS011;64089;51.478;5.692;2023-04-24T05:27:12;5.53;;;2.95;;
42832;SDS011;64089;51.478;5.692;2023-04-24T05:29:38;3.92;;;2.65;;
42832;SDS011;64089;51.478;5.692;2023-04-24T05:32:03;4.78;;;3.22;;
42832;SDS011;64089;51.478;5.692;2023-04-24T05:34:29;4.35;;;2.15;;
42832;SDS011;64089;51.478;5.692;2023-04-24T05:36:55;4.32;;;2.17;;
42832;SDS011;64089;51.478;5.692;2023-04-24T05:39:21;6.32;;;3.45;;
42832;SDS011;64089;51.478;5.692;2023-04-24T05:41:46;22.45;;;9.27;;
42832;SDS011;64089;51.478;5.692;2023-04-24T05:44:12;15.90;;;7.05;;
42832;SDS011;64089;51.478;5.692;2023-04-24T05:46:37;24.52;;;9.65;;
42832;SDS011;64089;51.478;5.692;2023-04-24T05:49:03;4.63;;;2.78;;
42832;SDS011;64089;51.478;5.692;2023-04-24T05:51:28;3.10;;;1.77;;
42832;SDS011;64089;51.478;5.692;2023-04-24T05:53:54;3.72;;;1.17;;
42832;SDS011;64089;51.478;5.692;2023-04-24T05:56:20;1.88;;;1.30;;
42832;SDS011;64089;51.478;5.692;2023-04-24T05:58:45;1.85;;;1.25;;
42832;SDS011;64089;51.478;5.692;2023-04-24T06:01:11;1.98;;;1.20;;
42832;SDS011;64089;51.478;5.692;2023-04-24T06:03:38;1.38;;;1.00;;
42832;SDS011;64089;51.478;5.692;2023-04-24T06:06:05;1.08;;;0.93;;
42832;SDS011;64089;51.478;5.692;2023-04-24T06:08:31;1.20;;;1.00;;
42832;SDS011;64089;51.478;5.692;2023-04-24T06:10:56;0.70;;;0.70;;
42832;SDS011;64089;51.478;5.692;2023-04-24T06:13:22;1.48;;;0.95;;
42832;SDS011;64089;51.478;5.692;2023-04-24T06:15:48;5.28;;;0.93;;
42832;SDS011;64089;51.478;5.692;2023-04-24T06:18:13;0.55;;;0.55;;
42832;SDS011;64089;51.478;5.692;2023-04-24T06:20:39;0.80;;;0.55;;
42832;SDS011;64089;51.478;5.692;2023-04-24T06:23:04;0.77;;;0.60;;
42832;SDS011;64089;51.478;5.692;2023-04-24T06:25:30;0.43;;;0.40;;
42832;SDS011;64089;51.478;5.692;2023-04-24T06:27:56;0.50;;;0.45;;
42832;SDS011;64089;51.478;5.692;2023-04-24T06:30:22;0.75;;;0.55;;
42832;SDS011;64089;51.478;5.692;2023-04-24T06:32:48;0.98;;;0.73;;
42832;SDS011;64089;51.478;5.692;2023-04-24T06:35:13;2.38;;;1.00;;
42832;SDS011;64089;51.478;5.692;2023-04-24T06:37:41;0.50;;;0.50;;
42832;SDS011;64089;51.478;5.692;2023-04-24T06:40:08;2.00;;;0.80;;
42832;SDS011;64089;51.478;5.692;2023-04-24T06:42:34;0.80;;;0.60;;
42832;SDS011;64089;51.478;5.692;2023-04-24T06:45:00;1.10;;;0.85;;
42832;SDS011;64089;51.478;5.692;2023-04-24T06:47:26;4.18;;;1.50;;
42832;SDS011;64089;51.478;5.692;2023-04-24T06:49:52;1.70;;;0.80;;
42832;SDS011;64089;51.478;5.692;2023-04-24T06:52:18;0.70;;;0.60;;
42832;SDS011;64089;51.478;5.692;2023-04-24T06:54:44;0.40;;;0.40;;
42832;SDS011;64089;51.478;5.692;2023-04-24T06:57:09;1.30;;;0.95;;
42832;SDS011;64089;51.478;5.692;2023-04-24T06:59:35;0.75;;;0.63;;
42832;SDS011;64089;51.478;5.692;2023-04-24T07:02:01;1.10;;;0.90;;
42832;SDS011;64089;51.478;5.692;2023-04-24T07:04:27;0.80;;;0.60;;
42832;SDS011;64089;51.478;5.692;2023-04-24T07:06:53;1.17;;;0.90;;
42832;SDS011;64089;51.478;5.692;2023-04-24T07:09:20;1.58;;;0.77;;
42832;SDS011;64089;51.478;5.692;2023-04-24T07:11:47;1.17;;;1.08;;
42832;SDS011;64089;51.478;5.692;2023-04-24T07:14:13;2.25;;;1.45;;
42832;SDS011;64089;51.478;5.692;2023-04-24T07:16:39;2.83;;;1.80;;
42832;SDS011;64089;51.478;5.692;2023-04-24T07:19:04;2.40;;;1.63;;
42832;SDS011;64089;51.478;5.692;2023-04-24T07:21:30;3.15;;;2.08;;
42832;SDS011;64089;51.478;5.692;2023-04-24T07:23:57;3.53;;;2.30;;
42832;SDS011;64089;51.478;5.692;2023-04-24T07:26:23;3.63;;;2.35;;
42832;SDS011;64089;51.478;5.692;2023-04-24T07:28:48;7.47;;;2.50;;
42832;SDS011;64089;51.478;5.692;2023-04-24T07:31:14;3.83;;;2.22;;
42832;SDS011;64089;51.478;5.692;2023-04-24T07:33:41;5.50;;;2.85;;
42832;SDS011;64089;51.478;5.692;2023-04-24T07:36:06;6.95;;;3.20;;
42832;SDS011;64089;51.478;5.692;2023-04-24T07:38:32;5.07;;;3.20;;
42832;SDS011;64089;51.478;5.692;2023-04-24T07:40:57;5.57;;;3.65;;
42832;SDS011;64089;51.478;5.692;2023-04-24T07:43:23;5.78;;;2.97;;
42832;SDS011;64089;51.478;5.692;2023-04-24T07:45:52;9.35;;;3.55;;
42832;SDS011;64089;51.478;5.692;2023-04-24T07:48:18;6.00;;;3.15;;
42832;SDS011;64089;51.478;5.692;2023-04-24T07:50:44;5.43;;;2.95;;
42832;SDS011;64089;51.478;5.692;2023-04-24T07:53:10;5.78;;;2.75;;
42832;SDS011;64089;51.478;5.692;2023-04-24T07:55:36;5.70;;;2.63;;
42832;SDS011;64089;51.478;5.692;2023-04-24T07:58:01;4.63;;;2.55;;
42832;SDS011;64089;51.478;5.692;2023-04-24T08:00:27;3.80;;;2.20;;
42832;SDS011;64089;51.478;5.692;2023-04-24T08:02:53;5.28;;;2.90;;
42832;SDS011;64089;51.478;5.692;2023-04-24T08:05:18;9.80;;;3.15;;
42832;SDS011;64089;51.478;5.692;2023-04-24T08:07:45;3.50;;;2.10;;
42832;SDS011;64089;51.478;5.692;2023-04-24T08:10:13;2.33;;;1.85;;
42832;SDS011;64089;51.478;5.692;2023-04-24T08:12:39;9.60;;;3.88;;
42832;SDS011;64089;51.478;5.692;2023-04-24T08:15:08;17.17;;;7.80;;
42832;SDS011;64089;51.478;5.692;2023-04-24T08:17:34;15.40;;;7.07;;
42832;SDS011;64089;51.478;5.692;2023-04-24T08:20:01;8.02;;;4.35;;
42832;SDS011;64089;51.478;5.692;2023-04-24T08:22:31;3.90;;;2.05;;
42832;SDS011;64089;51.478;5.692;2023-04-24T08:24:56;2.80;;;1.58;;
42832;SDS011;64089;51.478;5.692;2023-04-24T08:27:25;5.07;;;2.28;;
42832;SDS011;64089;51.478;5.692;2023-04-24T08:29:52;3.50;;;2.13;;
42832;SDS011;64089;51.478;5.692;2023-04-24T08:32:18;4.05;;;2.25;;
42832;SDS011;64089;51.478;5.692;2023-04-24T08:34:44;5.55;;;2.33;;
42832;SDS011;64089;51.478;5.692;2023-04-24T08:37:10;9.63;;;2.30;;
42832;SDS011;64089;51.478;5.692;2023-04-24T08:39:36;5.32;;;2.40;;
42832;SDS011;64089;51.478;5.692;2023-04-24T08:42:02;13.20;;;5.35;;
42832;SDS011;64089;51.478;5.692;2023-04-24T08:44:32;25.08;;;11.40;;
42832;SDS011;64089;51.478;5.692;2023-04-24T08:46:59;27.02;;;8.93;;
42832;SDS011;64089;51.478;5.692;2023-04-24T08:49:26;13.73;;;5.95;;
42832;SDS011;64089;51.478;5.692;2023-04-24T08:51:54;17.30;;;7.47;;
42832;SDS011;64089;51.478;5.692;2023-04-24T08:54:20;6.20;;;3.25;;
42832;SDS011;64089;51.478;5.692;2023-04-24T08:56:47;2.53;;;2.20;;
42832;SDS011;64089;51.478;5.692;2023-04-24T08:59:13;13.38;;;3.80;;
42832;SDS011;64089;51.478;5.692;2023-04-24T09:01:41;7.72;;;2.67;;
42832;SDS011;64089;51.478;5.692;2023-04-24T09:04:08;3.63;;;2.75;;
42832;SDS011;64089;51.478;5.692;2023-04-24T09:06:38;6.57;;;3.13;;
42832;SDS011;64089;51.478;5.692;2023-04-24T09:09:04;4.15;;;2.63;;
42832;SDS011;64089;51.478;5.692;2023-04-24T09:11:30;8.52;;;2.47;;
42832;SDS011;64089;51.478;5.692;2023-04-24T09:13:57;5.20;;;1.83;;
42832;SDS011;64089;51.478;5.692;2023-04-24T09:16:24;2.63;;;1.67;;
42832;SDS011;64089;51.478;5.692;2023-04-24T09:18:51;2.83;;;1.95;;
42832;SDS011;64089;51.478;5.692;2023-04-24T09:21:16;5.18;;;2.33;;
42832;SDS011;64089;51.478;5.692;2023-04-24T09:23:42;3.47;;;2.15;;
42832;SDS011;64089;51.478;5.692;2023-04-24T09:26:08;3.30;;;2.53;;
42832;SDS011;64089;51.478;5.692;2023-04-24T09:28:35;2.85;;;1.73;;
42832;SDS011;64089;51.478;5.692;2023-04-24T09:33:29;8.13;;;1.85;;
42832;SDS011;64089;51.478;5.692;2023-04-24T09:35:55;9.23;;;2.25;;
42832;SDS011;64089;51.478;5.692;2023-04-24T09:38:30;2.53;;;1.45;;
42832;SDS011;64089;51.478;5.692;2023-04-24T09:41:04;6.20;;;2.33;;
42832;SDS011;64089;51.478;5.692;2023-04-24T09:43:31;2.70;;;2.08;;
42832;SDS011;64089;51.478;5.692;2023-04-24T09:45:58;5.05;;;1.70;;
42832;SDS011;64089;51.478;5.692;2023-04-24T09:48:34;5.50;;;1.25;;
42832;SDS011;64089;51.478;5.692;2023-04-24T09:51:03;2.67;;;1.98;;
42832;SDS011;64089;51.478;5.692;2023-04-24T09:53:31;3.28;;;1.80;;
42832;SDS011;64089;51.478;5.692;2023-04-24T09:56:10;4.28;;;2.42;;
42832;SDS011;64089;51.478;5.692;2023-04-24T09:58:37;6.20;;;2.22;;
42832;SDS011;64089;51.478;5.692;2023-04-24T10:01:03;4.85;;;3.10;;
42832;SDS011;64089;51.478;5.692;2023-04-24T10:03:29;7.90;;;2.60;;
42832;SDS011;64089;51.478;5.692;2023-04-24T10:06:03;2.88;;;1.25;;
42832;SDS011;64089;51.478;5.692;2023-04-24T10:08:34;4.95;;;2.03;;
42832;SDS011;64089;51.478;5.692;2023-04-24T10:11:00;1.60;;;1.10;;
42832;SDS011;64089;51.478;5.692;2023-04-24T10:13:26;2.17;;;1.23;;
42832;SDS011;64089;51.478;5.692;2023-04-24T10:15:53;2.70;;;1.50;;
42832;SDS011;64089;51.478;5.692;2023-04-24T10:18:19;1.30;;;1.00;;
42832;SDS011;64089;51.478;5.692;2023-04-24T10:20:46;1.50;;;1.10;;
42832;SDS011;64089;51.478;5.692;2023-04-24T10:23:12;10.23;;;1.52;;
42832;SDS011;64089;51.478;5.692;2023-04-24T10:25:37;6.15;;;1.40;;
42832;SDS011;64089;51.478;5.692;2023-04-24T10:28:04;1.98;;;0.80;;
42832;SDS011;64089;51.478;5.692;2023-04-24T10:30:31;3.97;;;1.73;;
42832;SDS011;64089;51.478;5.692;2023-04-24T10:33:00;0.75;;;0.75;;
42832;SDS011;64089;51.478;5.692;2023-04-24T10:35:35;5.68;;;1.08;;
42832;SDS011;64089;51.478;5.692;2023-04-24T10:38:16;1.48;;;0.88;;
42832;SDS011;64089;51.478;5.692;2023-04-24T10:40:49;1.85;;;0.75;;
42832;SDS011;64089;51.478;5.692;2023-04-24T10:43:16;1.60;;;0.80;;
42832;SDS011;64089;51.478;5.692;2023-04-24T10:45:42;1.95;;;0.95;;
42832;SDS011;64089;51.478;5.692;2023-04-24T10:48:28;1.20;;;0.77;;
42832;SDS011;64089;51.478;5.692;2023-04-24T10:50:54;0.60;;;0.60;;
42832;SDS011;64089;51.478;5.692;2023-04-24T10:53:21;2.08;;;1.20;;
42832;SDS011;64089;51.478;5.692;2023-04-24T10:55:52;1.17;;;0.52;;
42832;SDS011;64089;51.478;5.692;2023-04-24T11:01:10;0.50;;;0.50;;
42832;SDS011;64089;51.478;5.692;2023-04-24T11:03:50;1.10;;;0.50;;
42832;SDS011;64089;51.478;5.692;2023-04-24T11:06:20;3.33;;;0.38;;
42832;SDS011;64089;51.478;5.692;2023-04-24T11:08:59;0.70;;;0.40;;
42832;SDS011;64089;51.478;5.692;2023-04-24T11:11:31;1.55;;;0.85;;
42832;SDS011;64089;51.478;5.692;2023-04-24T11:16:42;0.73;;;0.52;;
42832;SDS011;64089;51.478;5.692;2023-04-24T11:26:58;3.63;;;0.73;;
42832;SDS011;64089;51.478;5.692;2023-04-24T11:29:49;1.05;;;0.77;;
42832;SDS011;64089;51.478;5.692;2023-04-24T11:34:48;2.28;;;0.50;;
42832;SDS011;64089;51.478;5.692;2023-04-24T11:37:15;1.15;;;0.80;;
42832;SDS011;64089;51.478;5.692;2023-04-24T11:39:41;1.23;;;0.80;;
42832;SDS011;64089;51.478;5.692;2023-04-24T11:42:08;2.72;;;0.68;;
42832;SDS011;64089;51.478;5.692;2023-04-24T11:44:34;1.23;;;0.75;;
42832;SDS011;64089;51.478;5.692;2023-04-24T11:47:03;0.50;;;0.40;;
42832;SDS011;64089;51.478;5.692;2023-04-24T11:49:29;0.50;;;0.50;;
42832;SDS011;64089;51.478;5.692;2023-04-24T11:51:55;0.57;;;0.50;;
42832;SDS011;64089;51.478;5.692;2023-04-24T11:54:21;0.65;;;0.55;;
42832;SDS011;64089;51.478;5.692;2023-04-24T11:56:47;1.90;;;0.90;;
42832;SDS011;64089;51.478;5.692;2023-04-24T11:59:15;4.68;;;1.33;;
42832;SDS011;64089;51.478;5.692;2023-04-24T12:01:44;1.25;;;0.98;;
42832;SDS011;64089;51.478;5.692;2023-04-24T12:04:14;1.17;;;0.65;;
42832;SDS011;64089;51.478;5.692;2023-04-24T12:09:26;0.38;;;0.38;;
42832;SDS011;64089;51.478;5.692;2023-04-24T12:11:52;0.43;;;0.43;;
42832;SDS011;64089;51.478;5.692;2023-04-24T12:14:21;0.85;;;0.70;;
42832;SDS011;64089;51.478;5.692;2023-04-24T12:16:48;0.85;;;0.57;;
42832;SDS011;64089;51.478;5.692;2023-04-24T12:19:23;0.40;;;0.40;;
42832;SDS011;64089;51.478;5.692;2023-04-24T12:22:02;0.50;;;0.50;;
42832;SDS011;64089;51.478;5.692;2023-04-24T12:24:30;0.45;;;0.45;;
42832;SDS011;64089;51.478;5.692;2023-04-24T12:26:56;0.40;;;0.40;;
42832;SDS011;64089;51.478;5.692;2023-04-24T12:29:23;0.30;;;0.30;;
42832;SDS011;64089;51.478;5.692;2023-04-24T12:31:49;3.00;;;0.68;;
42832;SDS011;64089;51.478;5.692;2023-04-24T12:34:23;1.45;;;1.10;;
42832;SDS011;64089;51.478;5.692;2023-04-24T12:36:50;0.40;;;0.40;;
42832;SDS011;64089;51.478;5.692;2023-04-24T12:39:17;1.10;;;0.70;;
42832;SDS011;64089;51.478;5.692;2023-04-24T12:41:54;0.20;;;0.20;;
42832;SDS011;64089;51.478;5.692;2023-04-24T12:44:32;1.65;;;0.57;;
42832;SDS011;64089;51.478;5.692;2023-04-24T12:46:59;0.40;;;0.40;;
42832;SDS011;64089;51.478;5.692;2023-04-24T12:49:25;0.63;;;0.60;;
42832;SDS011;64089;51.478;5.692;2023-04-24T12:51:51;2.42;;;0.82;;
42832;SDS011;64089;51.478;5.692;2023-04-24T12:54:17;1.52;;;1.02;;
42832;SDS011;64089;51.478;5.692;2023-04-24T12:56:43;0.63;;;0.40;;
42832;SDS011;64089;51.478;5.692;2023-04-24T12:59:09;0.30;;;0.30;;
42832;SDS011;64089;51.478;5.692;2023-04-24T13:01:34;0.40;;;0.35;;
42832;SDS011;64089;51.478;5.692;2023-04-24T13:04:00;2.05;;;0.55;;
42832;SDS011;64089;51.478;5.692;2023-04-24T13:06:26;0.40;;;0.30;;
42832;SDS011;64089;51.478;5.692;2023-04-24T13:08:52;1.75;;;0.65;;
42832;SDS011;64089;51.478;5.692;2023-04-24T13:11:19;0.57;;;0.55;;
42832;SDS011;64089;51.478;5.692;2023-04-24T13:13:46;0.50;;;0.50;;
42832;SDS011;64089;51.478;5.692;2023-04-24T13:16:12;1.55;;;0.52;;
42832;SDS011;64089;51.478;5.692;2023-04-24T13:18:38;0.70;;;0.50;;
42832;SDS011;64089;51.478;5.692;2023-04-24T13:21:03;1.50;;;0.85;;
42832;SDS011;64089;51.478;5.692;2023-04-24T13:23:29;2.42;;;0.47;;
42832;SDS011;64089;51.478;5.692;2023-04-24T13:25:54;0.55;;;0.55;;
42832;SDS011;64089;51.478;5.692;2023-04-24T13:28:24;0.60;;;0.60;;
42832;SDS011;64089;51.478;5.692;2023-04-24T13:30:50;0.50;;;0.50;;
42832;SDS011;64089;51.478;5.692;2023-04-24T13:33:16;0.50;;;0.50;;
42832;SDS011;64089;51.478;5.692;2023-04-24T13:35:42;1.27;;;0.75;;
42832;SDS011;64089;51.478;5.692;2023-04-24T13:38:07;0.80;;;0.60;;
42832;SDS011;64089;51.478;5.692;2023-04-24T13:40:33;0.50;;;0.50;;
42832;SDS011;64089;51.478;5.692;2023-04-24T13:42:59;0.40;;;0.40;;
42832;SDS011;64089;51.478;5.692;2023-04-24T13:45:25;2.05;;;0.60;;
42832;SDS011;64089;51.478;5.692;2023-04-24T13:47:51;1.02;;;0.40;;
42832;SDS011;64089;51.478;5.692;2023-04-24T13:50:18;1.75;;;0.65;;
42832;SDS011;64089;51.478;5.692;2023-04-24T13:52:44;0.50;;;0.50;;
42832;SDS011;64089;51.478;5.692;2023-04-24T13:55:10;0.77;;;0.55;;
42832;SDS011;64089;51.478;5.692;2023-04-24T13:57:36;0.98;;;0.50;;
42832;SDS011;64089;51.478;5.692;2023-04-24T14:00:02;0.30;;;0.30;;
42832;SDS011;64089;51.478;5.692;2023-04-24T14:02:31;1.25;;;0.60;;
42832;SDS011;64089;51.478;5.692;2023-04-24T14:04:56;1.10;;;0.73;;
42832;SDS011;64089;51.478;5.692;2023-04-24T14:07:22;0.63;;;0.63;;
42832;SDS011;64089;51.478;5.692;2023-04-24T14:09:48;0.70;;;0.70;;
42832;SDS011;64089;51.478;5.692;2023-04-24T14:12:14;1.17;;;0.82;;
42832;SDS011;64089;51.478;5.692;2023-04-24T14:14:44;13.15;;;6.07;;
42832;SDS011;64089;51.478;5.692;2023-04-24T14:17:11;13.52;;;6.28;;
42832;SDS011;64089;51.478;5.692;2023-04-24T14:19:37;7.32;;;3.25;;
42832;SDS011;64089;51.478;5.692;2023-04-24T14:22:02;4.93;;;2.47;;
42832;SDS011;64089;51.478;5.692;2023-04-24T14:24:28;0.98;;;0.85;;
42832;SDS011;64089;51.478;5.692;2023-04-24T14:26:53;0.80;;;0.50;;
42832;SDS011;64089;51.478;5.692;2023-04-24T14:29:19;1.25;;;0.90;;
42832;SDS011;64089;51.478;5.692;2023-04-24T14:31:45;0.63;;;0.60;;
42832;SDS011;64089;51.478;5.692;2023-04-24T14:34:10;5.82;;;1.88;;
42832;SDS011;64089;51.478;5.692;2023-04-24T14:36:36;1.45;;;0.88;;
42832;SDS011;64089;51.478;5.692;2023-04-24T14:39:02;0.70;;;0.70;;
42832;SDS011;64089;51.478;5.692;2023-04-24T14:41:31;1.55;;;0.57;;
42832;SDS011;64089;51.478;5.692;2023-04-24T14:44:00;2.47;;;1.17;;
42832;SDS011;64089;51.478;5.692;2023-04-24T14:46:27;2.00;;;0.95;;
42832;SDS011;64089;51.478;5.692;2023-04-24T14:48:54;1.33;;;0.65;;
42832;SDS011;64089;51.478;5.692;2023-04-24T14:51:20;1.63;;;0.68;;
42832;SDS011;64089;51.478;5.692;2023-04-24T14:53:45;0.80;;;0.55;;
42832;SDS011;64089;51.478;5.692;2023-04-24T14:56:12;1.10;;;0.85;;
42832;SDS011;64089;51.478;5.692;2023-04-24T14:58:38;1.38;;;0.65;;
42832;SDS011;64089;51.478;5.692;2023-04-24T15:01:04;1.50;;;0.70;;